createdAt,value
2017-12-28T00:00:08.991Z,5.70
2017-12-28T00:05:10.521Z,5.70
2017-12-28T00:10:12.759Z,5.70
2017-12-28T00:15:14.257Z,5.60
2017-12-28T00:20:15.768Z,5.70
2017-12-28T00:25:17.251Z,5.60
2017-12-28T00:30:18.860Z,5.50
2017-12-28T00:35:20.397Z,5.40
2017-12-28T00:40:22.017Z,5.30
2017-12-28T00:45:24.289Z,5.20
2017-12-28T00:50:25.857Z,5.20
2017-12-28T00:55:27.402Z,5.20
2017-12-28T01:00:28.950Z,5.10
2017-12-28T01:05:30.509Z,5.00
2017-12-28T01:10:32.001Z,4.80
2017-12-28T01:15:33.605Z,4.70
2017-12-28T01:20:35.888Z,4.70
2017-12-28T01:25:38.185Z,4.70
2017-12-28T01:30:40.529Z,4.80
2017-12-28T01:35:42.084Z,4.70
2017-12-28T01:40:43.631Z,4.70
2017-12-28T01:45:45.184Z,4.70
2017-12-28T01:50:46.709Z,4.80
2017-12-28T01:55:48.253Z,4.80
2017-12-28T02:00:49.794Z,4.80
2017-12-28T02:05:58.325Z,4.90
2017-12-28T02:10:59.934Z,4.80
2017-12-28T02:16:01.434Z,4.80
2017-12-28T02:21:03.723Z,4.80
2017-12-28T02:26:05.973Z,4.80
2017-12-28T02:31:07.474Z,4.80
2017-12-28T02:36:09.753Z,4.80
2017-12-28T02:41:12.033Z,4.80
2017-12-28T02:46:14.316Z,4.90
2017-12-28T02:51:15.817Z,4.80
2017-12-28T02:56:17.389Z,4.80
2017-12-28T03:01:18.934Z,4.90
2017-12-28T03:06:21.204Z,4.90
2017-12-28T03:11:22.731Z,4.80
2017-12-28T03:16:24.239Z,4.90
2017-12-28T03:21:25.725Z,5.00
2017-12-28T03:26:27.964Z,5.10
2017-12-28T03:31:29.485Z,5.00
2017-12-28T03:36:31.025Z,5.10
2017-12-28T03:41:33.320Z,5.10
2017-12-28T03:46:35.597Z,5.10
2017-12-28T03:51:37.888Z,5.10
2017-12-28T03:56:40.120Z,5.10
2017-12-28T04:01:41.613Z,5.10
2017-12-28T04:06:43.125Z,5.10
2017-12-28T04:11:44.697Z,5.10
2017-12-28T04:16:46.207Z,5.10
2017-12-28T04:21:47.744Z,5.00
2017-12-28T04:26:49.287Z,5.00
2017-12-28T04:31:51.517Z,5.10
2017-12-28T04:36:53.037Z,5.00
2017-12-28T04:41:55.337Z,5.00
2017-12-28T04:46:56.880Z,4.90
2017-12-28T04:51:59.176Z,5.00
2017-12-28T04:57:00.707Z,4.90
2017-12-28T05:02:02.222Z,5.00
2017-12-28T05:07:03.700Z,5.00
2017-12-28T05:12:05.204Z,5.00
2017-12-28T05:17:06.809Z,5.00
2017-12-28T05:22:09.120Z,4.90
2017-12-28T05:27:10.673Z,4.90
2017-12-28T05:32:12.232Z,4.90
2017-12-28T05:37:13.752Z,4.90
2017-12-28T05:42:15.246Z,4.80
2017-12-28T05:47:16.804Z,4.90
2017-12-28T05:52:18.337Z,4.80
2017-12-28T05:57:19.855Z,4.80
2017-12-28T06:02:22.101Z,4.80
2017-12-28T06:07:23.574Z,4.70
2017-12-28T06:12:25.112Z,4.70
2017-12-28T06:17:26.615Z,4.60
2017-12-28T06:22:28.177Z,4.60
2017-12-28T06:27:29.659Z,4.60
2017-12-28T06:32:31.201Z,4.50
2017-12-28T06:37:32.756Z,4.50
2017-12-28T06:42:34.279Z,4.40
2017-12-28T06:47:36.618Z,4.50
2017-12-28T06:52:38.101Z,4.40
2017-12-28T06:57:39.579Z,4.40
2017-12-28T07:02:41.065Z,4.50
2017-12-28T07:07:43.301Z,4.30
2017-12-28T07:12:44.796Z,4.30
2017-12-28T07:17:46.329Z,4.30
2017-12-28T07:22:47.827Z,4.30
2017-12-28T07:27:49.369Z,4.40
2017-12-28T07:32:50.938Z,4.40
2017-12-28T07:37:53.152Z,4.50
2017-12-28T07:42:54.688Z,4.50
2017-12-28T07:47:56.217Z,4.70
2017-12-28T07:52:57.848Z,4.80
2017-12-28T07:57:59.402Z,4.90
2017-12-28T08:03:00.919Z,5.10
2017-12-28T08:08:03.136Z,5.00
2017-12-28T08:13:04.700Z,5.00
2017-12-28T08:18:06.232Z,5.00
2017-12-28T08:23:08.566Z,5.20
2017-12-28T08:28:10.117Z,5.10
2017-12-28T08:33:11.625Z,5.10
2017-12-28T08:38:13.149Z,5.20
2017-12-28T08:43:14.782Z,5.20
2017-12-28T08:48:17.060Z,5.00
2017-12-28T08:53:19.345Z,5.00
2017-12-28T08:58:20.860Z,5.00
2017-12-28T09:03:22.384Z,5.00
2017-12-28T09:08:24.640Z,4.90
2017-12-28T09:13:26.176Z,4.80
2017-12-28T09:18:27.734Z,5.00
2017-12-28T09:23:29.352Z,5.00
2017-12-28T09:28:30.896Z,5.00
2017-12-28T09:33:32.377Z,5.00
2017-12-28T09:38:33.831Z,5.20
2017-12-28T09:43:35.326Z,5.20
2017-12-28T09:48:36.885Z,5.20
2017-12-28T09:53:38.426Z,5.20
2017-12-28T09:58:39.937Z,5.10
2017-12-28T10:03:41.468Z,5.30
2017-12-28T10:08:42.993Z,5.50
2017-12-28T10:13:45.261Z,5.30
2017-12-28T10:18:47.538Z,5.40
2017-12-28T10:23:49.127Z,5.40
2017-12-28T10:28:52.295Z,5.40
2017-12-28T10:33:53.815Z,5.30
2017-12-28T10:38:55.417Z,5.30
2017-12-28T10:43:56.976Z,5.20
2017-12-28T10:48:58.512Z,5.20
2017-12-28T10:54:00.047Z,5.20
2017-12-28T10:59:01.596Z,5.10
2017-12-28T11:04:03.141Z,5.20
2017-12-28T11:09:04.640Z,5.10
2017-12-28T11:14:06.227Z,5.10
2017-12-28T11:19:07.760Z,5.10
2017-12-28T11:24:09.288Z,5.20
2017-12-28T11:29:10.783Z,5.40
2017-12-28T11:34:12.290Z,5.30
2017-12-28T11:39:13.879Z,5.20
2017-12-28T11:44:16.149Z,5.70
2017-12-28T11:49:17.682Z,5.70
2017-12-28T11:54:26.336Z,6.00
2017-12-28T11:59:33.574Z,6.10
2017-12-28T12:04:41.222Z,6.10
2017-12-28T12:09:48.727Z,6.20
2017-12-28T12:14:50.240Z,6.20
2017-12-28T12:19:51.761Z,6.10
2017-12-28T12:24:53.296Z,5.70
2017-12-28T12:29:54.836Z,5.60
2017-12-28T12:34:56.380Z,5.70
2017-12-28T12:39:58.025Z,5.70
2017-12-28T12:44:59.564Z,5.70
2017-12-28T12:50:01.084Z,5.60
2017-12-28T12:55:02.586Z,5.70
2017-12-28T13:00:04.854Z,5.70
2017-12-28T13:05:06.409Z,5.70
2017-12-28T13:10:07.932Z,5.70
2017-12-28T13:15:09.493Z,5.60
2017-12-28T13:20:11.039Z,5.50
2017-12-28T13:25:13.336Z,5.70
2017-12-28T13:30:15.611Z,5.50
2017-12-28T13:35:17.904Z,5.00
2017-12-28T13:40:20.181Z,4.90
2017-12-28T13:45:22.475Z,5.00
2017-12-28T13:50:24.728Z,5.10
2017-12-28T13:55:26.227Z,5.10
2017-12-28T14:00:28.505Z,5.30
2017-12-28T14:05:30.821Z,5.30
2017-12-28T14:10:32.352Z,5.30
2017-12-28T14:15:34.633Z,5.40
2017-12-28T14:20:36.156Z,5.30
2017-12-28T14:25:37.750Z,5.40
2017-12-28T14:30:39.361Z,5.20
2017-12-28T14:35:40.932Z,5.20
2017-12-28T14:40:42.422Z,5.10
2017-12-28T14:45:43.976Z,5.10
2017-12-28T14:50:45.514Z,5.10
2017-12-28T14:55:47.707Z,5.10
2017-12-28T15:00:49.922Z,5.00
2017-12-28T15:05:58.432Z,4.90
2017-12-28T15:11:00.016Z,4.90
2017-12-28T15:16:01.523Z,4.80
2017-12-28T15:21:03.022Z,4.70
2017-12-28T15:26:05.323Z,4.30
2017-12-28T15:31:06.842Z,4.30
2017-12-28T15:36:08.460Z,4.30
2017-12-28T15:41:16.986Z,4.10
2017-12-28T15:46:18.737Z,3.90
2017-12-28T15:51:21.018Z,3.80
2017-12-28T15:56:22.552Z,3.70
2017-12-28T16:01:24.090Z,3.60
2017-12-28T16:06:25.633Z,3.60
2017-12-28T16:11:27.930Z,3.40
2017-12-28T16:16:29.471Z,3.40
2017-12-28T16:21:31.013Z,3.30
2017-12-28T16:26:32.865Z,3.30
2017-12-28T16:31:34.417Z,3.20
2017-12-28T16:36:35.956Z,3.20
2017-12-28T16:41:38.228Z,3.10
2017-12-28T16:46:39.775Z,3.00
2017-12-28T16:51:41.477Z,3.00
2017-12-28T16:56:43.749Z,2.70
2017-12-28T17:01:45.273Z,2.60
2017-12-28T17:06:46.793Z,2.60
2017-12-28T17:11:48.306Z,2.50
2017-12-28T17:16:49.912Z,2.30
2017-12-28T17:21:51.502Z,2.20
2017-12-28T17:26:54.006Z,2.10
2017-12-28T17:31:56.309Z,2.20
2017-12-28T17:36:58.041Z,2.10
2017-12-28T17:41:59.627Z,2.20
2017-12-28T17:47:01.953Z,2.10
2017-12-28T17:52:03.596Z,2.10
2017-12-28T17:57:05.186Z,2.10
2017-12-28T18:02:06.745Z,2.00
2017-12-28T18:07:09.124Z,1.90
2017-12-28T18:12:10.632Z,1.80
2017-12-28T18:17:12.261Z,1.70
2017-12-28T18:22:13.804Z,1.80
2017-12-28T18:27:16.127Z,2.10
2017-12-28T18:32:17.884Z,2.10
2017-12-28T18:37:19.452Z,2.30
2017-12-28T18:42:20.985Z,2.50
2017-12-28T18:47:22.613Z,2.60
2017-12-28T18:52:24.126Z,2.70
2017-12-28T18:57:25.721Z,2.70
2017-12-28T19:02:27.243Z,2.60
2017-12-28T19:07:28.778Z,2.50
2017-12-28T19:12:30.331Z,2.30
2017-12-28T19:17:31.920Z,2.20
2017-12-28T19:22:33.467Z,2.10
2017-12-28T19:27:35.039Z,1.90
2017-12-28T19:32:36.669Z,1.80
2017-12-28T19:37:38.210Z,1.70
2017-12-28T19:42:39.784Z,1.60
2017-12-28T19:47:41.342Z,1.60
2017-12-28T19:52:42.904Z,1.60
2017-12-28T19:57:44.429Z,1.50
2017-12-28T20:02:46.836Z,1.50
2017-12-28T20:07:48.521Z,1.40
2017-12-28T20:12:50.126Z,1.50
2017-12-28T20:17:51.725Z,1.50
2017-12-28T20:22:53.280Z,1.50
2017-12-28T20:27:55.585Z,1.40
2017-12-28T20:32:57.882Z,1.30
2017-12-28T20:37:59.417Z,1.30
2017-12-28T20:43:01.704Z,1.20
2017-12-28T20:48:04.046Z,1.10
2017-12-28T20:53:05.598Z,1.10
2017-12-28T20:58:07.160Z,1.10
2017-12-28T21:03:08.710Z,1.10
2017-12-28T21:08:11.044Z,1.10
2017-12-28T21:13:12.533Z,1.10
2017-12-28T21:18:14.076Z,1.20
2017-12-28T21:23:17.011Z,1.20
2017-12-28T21:28:19.447Z,1.20
2017-12-28T21:33:21.578Z,1.20
2017-12-28T21:38:23.533Z,1.30
2017-12-28T21:43:25.279Z,1.40
2017-12-28T21:48:26.828Z,1.50
2017-12-28T21:53:28.582Z,1.40
2017-12-28T21:58:30.852Z,1.40
2017-12-28T22:03:32.531Z,1.30
2017-12-28T22:08:34.802Z,1.40
2017-12-28T22:13:36.484Z,1.40
2017-12-28T22:18:38.771Z,1.50
2017-12-28T22:23:41.021Z,1.50
2017-12-28T22:28:42.550Z,1.50
2017-12-28T22:33:44.096Z,1.50
2017-12-28T22:38:46.386Z,1.60
2017-12-28T22:43:48.679Z,1.50
2017-12-28T22:48:50.877Z,1.30
2017-12-28T22:53:52.371Z,1.20
2017-12-28T22:58:53.872Z,1.30
2017-12-28T23:03:55.425Z,1.20
2017-12-28T23:08:56.967Z,1.10
2017-12-28T23:13:58.443Z,1.00
2017-12-28T23:18:59.924Z,1.00
2017-12-28T23:24:01.426Z,1.10
2017-12-28T23:29:03.784Z,1.20
2017-12-28T23:34:05.307Z,1.10
2017-12-28T23:39:06.942Z,1.30
2017-12-28T23:44:08.448Z,1.30
2017-12-28T23:49:10.735Z,1.20
2017-12-28T23:54:12.218Z,1.20
2017-12-28T23:59:13.686Z,1.20
